Carrot River, Canada
Current Conditions -  °F | °C
As of 2:00 AM on Tuesday 21 Oct 2014 (Local Time) from CYBU Reporting Station
Few Clouds Few Clouds  
Wind Chill: 43°   Ceiling: Unl
Heat Index: 46°   Visibility: 9mi
Dew Point: 41°   Wind: 7mph
Humidity: 81%   Direction: 160°SSE
Pressure: 29.64"   Gusts: NA
Location:  53.28°N, 103.58°W
Report Text: CYBU 210800Z AUTO 16006KT 9SM FEW240 08/05 A2964 RMK SLP048
Loading
Personal Weather Stations






























Interactive Weather Map
Tropical Storm Tracking
New forecast layout! Learn more

10-Day Weather Forecast

Advertisements
Track Severe Weather on mobile